Time;durP1;ratioP1;P1;durP2;ratioP2;P2;SDS_P1;SDS_P2;PMS_P1;PMS_P2;Temp;Humidity;BMP_temperature;BMP_pressure;BME280_temperature;BME280_humidity;BME280_pressure;Samples;Min_cycle;Max_cycle;Signal;HPM_P1;HPM_P2
2022/05/12 00:00:20;;;;;;;46.22;18.63;;;;;;;;;;4952651;29;20873;-82
2022/05/12 00:02:46;;;;;;;42.10;16.40;;;;;;;;;;4937646;29;20507;-81
2022/05/12 00:05:11;;;;;;;41.08;17.08;;;;;;;;;;4950609;28;20062;-79
2022/05/12 00:07:38;;;;;;;52.88;19.23;;;;;;;;;;4950765;29;20058;-80
2022/05/12 00:10:04;;;;;;;32.60;14.70;;;;;;;;;;4934184;29;20126;-79
2022/05/12 00:12:30;;;;;;;37.70;16.23;;;;;;;;;;4950358;29;20087;-78
2022/05/12 00:14:56;;;;;;;52.00;18.38;;;;;;;;;;4950879;29;20429;-80
2022/05/12 00:17:21;;;;;;;39.58;18.05;;;;;;;;;;4950366;29;20043;-78
2022/05/12 00:19:47;;;;;;;41.20;17.95;;;;;;;;;;4933419;29;20039;-80
2022/05/12 00:22:13;;;;;;;65.25;18.70;;;;;;;;;;4950713;29;20050;-80
2022/05/12 00:24:39;;;;;;;31.55;16.95;;;;;;;;;;4951638;29;20138;-81
2022/05/12 00:27:05;;;;;;;39.58;16.70;;;;;;;;;;4918958;29;20147;-81
2022/05/12 00:29:31;;;;;;;40.78;17.58;;;;;;;;;;4952179;29;20110;-81
2022/05/12 00:31:57;;;;;;;30.33;16.48;;;;;;;;;;4951507;29;20130;-79
2022/05/12 00:34:23;;;;;;;35.63;15.95;;;;;;;;;;4936221;29;20067;-79
2022/05/12 00:36:49;;;;;;;40.75;16.20;;;;;;;;;;4957137;29;20551;-81
2022/05/12 00:39:15;;;;;;;31.40;15.73;;;;;;;;;;4961600;29;20093;-81
2022/05/12 00:41:41;;;;;;;47.03;18.73;;;;;;;;;;4963291;29;20086;-79
2022/05/12 00:44:07;;;;;;;30.67;17.73;;;;;;;;;;4957041;29;20039;-78
2022/05/12 00:46:37;;;;;;;38.10;18.10;;;;;;;;;;4951016;29;20059;-79
2022/05/12 00:49:08;;;;;;;45.65;20.17;;;;;;;;;;4934282;29;20084;-80
2022/05/12 00:51:46;;;;;;;43.75;19.23;;;;;;;;;;4918058;29;20046;-80
2022/05/12 00:54:16;;;;;;;34.00;17.73;;;;;;;;;;4933470;29;20051;-80
2022/05/12 00:56:41;;;;;;;39.97;20.05;;;;;;;;;;4918503;29;20047;-78
2022/05/12 00:59:08;;;;;;;33.72;15.73;;;;;;;;;;4936550;29;20045;-77
2022/05/12 01:01:34;;;;;;;24.63;14.05;;;;;;;;;;4953687;29;20399;-79
2022/05/12 01:04:00;;;;;;;24.73;14.48;;;;;;;;;;4953463;29;20057;-79
2022/05/12 01:06:26;;;;;;;28.63;14.95;;;;;;;;;;4953485;29;20055;-79
2022/05/12 01:08:52;;;;;;;23.92;14.50;;;;;;;;;;4920852;29;20031;-78
2022/05/12 01:11:19;;;;;;;23.50;13.27;;;;;;;;;;4936275;29;20103;-79
2022/05/12 01:13:46;;;;;;;24.10;12.68;;;;;;;;;;4953617;29;20552;-77
2022/05/12 01:16:13;;;;;;;17.25;11.75;;;;;;;;;;4936477;29;20043;-79
2022/05/12 01:18:39;;;;;;;27.20;11.82;;;;;;;;;;4932116;29;20027;-79
2022/05/12 01:21:07;;;;;;;24.23;11.00;;;;;;;;;;4962063;29;20062;-79
2022/05/12 01:23:33;;;;;;;25.80;12.55;;;;;;;;;;4953452;29;20051;-78
2022/05/12 01:26:00;;;;;;;22.30;11.88;;;;;;;;;;4953386;29;20545;-79
2022/05/12 01:28:26;;;;;;;21.63;11.32;;;;;;;;;;4936030;29;20047;-79
2022/05/12 01:30:52;;;;;;;21.65;12.32;;;;;;;;;;4936285;29;20098;-80
2022/05/12 01:33:18;;;;;;;16.88;10.80;;;;;;;;;;4936071;29;20412;-79
2022/05/12 01:35:44;;;;;;;19.00;11.70;;;;;;;;;;4952986;29;20039;-79
2022/05/12 01:38:10;;;;;;;13.20;10.48;;;;;;;;;;4953228;29;20051;-80
2022/05/12 01:40:37;;;;;;;20.77;11.50;;;;;;;;;;4953226;29;20462;-81
2022/05/12 01:43:02;;;;;;;16.15;10.32;;;;;;;;;;4954002;29;20757;-80
2022/05/12 01:45:28;;;;;;;21.23;11.55;;;;;;;;;;4939237;29;20074;-81
2022/05/12 01:47:54;;;;;;;24.40;11.55;;;;;;;;;;4958029;29;20063;-81
2022/05/12 01:50:20;;;;;;;22.50;11.35;;;;;;;;;;4958831;29;20043;-81
2022/05/12 01:52:46;;;;;;;23.10;11.05;;;;;;;;;;4953229;29;20051;-77
2022/05/12 01:55:13;;;;;;;16.00;10.50;;;;;;;;;;4958856;29;20061;-82
2022/05/12 01:57:42;;;;;;;20.55;10.95;;;;;;;;;;4974268;29;20031;-83
2022/05/12 02:00:12;;;;;;;24.95;10.38;;;;;;;;;;4971944;29;20138;-82
2022/05/12 02:02:38;;;;;;;26.70;10.20;;;;;;;;;;4954000;29;20118;-82
2022/05/12 02:05:05;;;;;;;16.08;8.63;;;;;;;;;;4970184;28;20119;-81
2022/05/12 02:07:31;;;;;;;15.25;8.80;;;;;;;;;;4970650;28;20059;-83
2022/05/12 02:09:57;;;;;;;18.90;9.40;;;;;;;;;;4956517;29;20058;-83
2022/05/12 02:12:23;;;;;;;15.68;7.93;;;;;;;;;;4972594;29;20047;-81
2022/05/12 02:14:49;;;;;;;13.25;8.23;;;;;;;;;;4971144;29;20041;-82
2022/05/12 02:17:15;;;;;;;16.92;6.70;;;;;;;;;;4961458;29;20054;-83
2022/05/12 02:19:40;;;;;;;10.95;6.82;;;;;;;;;;4961976;29;20051;-82
2022/05/12 02:22:06;;;;;;;8.25;6.68;;;;;;;;;;4967079;29;20106;-83
2022/05/12 02:24:32;;;;;;;13.38;6.60;;;;;;;;;;4967450;29;20054;-81
2022/05/12 02:26:58;;;;;;;17.83;7.18;;;;;;;;;;4961896;29;20051;-81
2022/05/12 02:29:24;;;;;;;14.32;7.50;;;;;;;;;;4962284;29;20094;-83
2022/05/12 02:31:51;;;;;;;10.30;6.95;;;;;;;;;;4967686;29;20502;-83
2022/05/12 02:34:17;;;;;;;9.60;7.18;;;;;;;;;;4966100;29;20114;-81
2022/05/12 02:36:59;;;;;;;8.57;6.40;;;;;;;;;;4962214;29;20047;-81
2022/05/12 02:39:32;;;;;;;8.82;6.40;;;;;;;;;;4955687;29;20039;-81
2022/05/12 02:41:59;;;;;;;10.40;7.07;;;;;;;;;;4957109;29;20058;-81
2022/05/12 02:44:25;;;;;;;11.00;6.72;;;;;;;;;;4955188;29;20715;-82
2022/05/12 02:46:51;;;;;;;11.75;6.47;;;;;;;;;;4953219;29;20055;-80
2022/05/12 02:49:17;;;;;;;12.07;6.40;;;;;;;;;;4952615;29;20625;-79
2022/05/12 02:51:47;;;;;;;7.15;6.45;;;;;;;;;;4952527;29;20138;-80
2022/05/12 02:54:14;;;;;;;9.65;5.75;;;;;;;;;;4952193;29;20081;-82
2022/05/12 02:56:40;;;;;;;9.18;6.45;;;;;;;;;;4952025;29;20429;-82
2022/05/12 02:59:06;;;;;;;9.02;6.38;;;;;;;;;;4953148;29;20043;-82
2022/05/12 03:01:32;;;;;;;8.98;6.15;;;;;;;;;;4916726;29;20047;-83
2022/05/12 03:03:57;;;;;;;7.72;6.40;;;;;;;;;;4947012;28;20583;-81
2022/05/12 03:06:23;;;;;;;13.88;6.45;;;;;;;;;;4958828;29;20055;-82
2022/05/12 03:08:49;;;;;;;12.30;7.47;;;;;;;;;;4957312;29;20074;-82
2022/05/12 03:11:15;;;;;;;17.23;7.63;;;;;;;;;;4956834;29;20426;-81
2022/05/12 03:13:42;;;;;;;13.75;7.60;;;;;;;;;;4935198;29;20139;-81
2022/05/12 03:16:07;;;;;;;14.65;7.40;;;;;;;;;;4935664;29;20035;-80
2022/05/12 03:18:33;;;;;;;14.07;7.30;;;;;;;;;;4952175;28;20069;-81
2022/05/12 03:20:59;;;;;;;16.95;8.20;;;;;;;;;;4931126;29;20106;-83
2022/05/12 03:23:25;;;;;;;22.73;8.38;;;;;;;;;;4935952;29;20058;-74
2022/05/12 03:25:52;;;;;;;18.67;8.70;;;;;;;;;;4914686;29;20047;-75
2022/05/12 03:28:17;;;;;;;14.13;8.52;;;;;;;;;;4931562;29;20054;-76
2022/05/12 03:30:43;;;;;;;15.07;8.57;;;;;;;;;;4931691;29;20043;-76
2022/05/12 03:33:10;;;;;;;31.20;9.27;;;;;;;;;;4931561;29;20103;-76
2022/05/12 03:35:36;;;;;;;13.77;8.45;;;;;;;;;;4931455;29;20039;-76
2022/05/12 03:38:02;;;;;;;21.10;8.55;;;;;;;;;;4931778;29;20086;-76
2022/05/12 03:40:28;;;;;;;16.63;9.07;;;;;;;;;;4931705;29;20162;-77
2022/05/12 03:42:58;;;;;;;14.50;8.40;;;;;;;;;;4931643;29;20047;-77
2022/05/12 03:45:27;;;;;;;18.98;8.68;;;;;;;;;;4931604;29;20058;-77
2022/05/12 03:47:55;;;;;;;12.70;8.82;;;;;;;;;;4930979;29;20059;-79
2022/05/12 03:50:23;;;;;;;13.93;8.07;;;;;;;;;;4931625;29;20040;-78
2022/05/12 03:52:49;;;;;;;14.30;7.90;;;;;;;;;;4931475;29;20082;-77
2022/05/12 03:55:16;;;;;;;21.70;8.52;;;;;;;;;;4931756;29;20046;-75
2022/05/12 03:57:42;;;;;;;14.50;8.43;;;;;;;;;;4931919;29;20480;-77
2022/05/12 04:00:10;;;;;;;21.25;8.63;;;;;;;;;;4916377;29;20058;-75
2022/05/12 04:02:39;;;;;;;23.13;10.05;;;;;;;;;;4934284;29;20051;-77
2022/05/12 04:05:08;;;;;;;18.80;7.90;;;;;;;;;;4950993;29;20047;-76
2022/05/12 04:07:34;;;;;;;15.18;8.02;;;;;;;;;;4935182;29;20087;-75
2022/05/12 04:10:01;;;;;;;20.08;8.95;;;;;;;;;;4957862;29;20039;-77
2022/05/12 04:12:27;;;;;;;13.65;8.85;;;;;;;;;;4926046;29;20047;-77
2022/05/12 04:14:53;;;;;;;20.13;8.82;;;;;;;;;;4953472;29;20118;-78
2022/05/12 04:17:19;;;;;;;22.17;9.10;;;;;;;;;;4933786;29;20050;-77
2022/05/12 04:19:45;;;;;;;22.25;8.18;;;;;;;;;;4911669;29;20043;-76
2022/05/12 04:22:11;;;;;;;16.95;7.45;;;;;;;;;;4914765;29;20442;-76
2022/05/12 04:24:37;;;;;;;14.18;7.20;;;;;;;;;;4931016;29;20281;-77
2022/05/12 04:27:03;;;;;;;12.73;7.53;;;;;;;;;;4931340;29;20067;-76
2022/05/12 04:29:29;;;;;;;16.23;8.27;;;;;;;;;;4931151;29;20051;-77
2022/05/12 04:31:54;;;;;;;16.92;7.88;;;;;;;;;;4934111;29;20051;-76
2022/05/12 04:37:05;;;;;;;13.60;8.23;;;;;;;;;;4934808;29;20147;-75
2022/05/12 04:39:32;;;;;;;11.57;8.00;;;;;;;;;;4934568;29;20790;-76
2022/05/12 04:41:58;;;;;;;19.90;9.10;;;;;;;;;;4934757;29;20423;-77
2022/05/12 04:44:26;;;;;;;16.02;8.48;;;;;;;;;;4934497;29;20063;-75
2022/05/12 04:46:52;;;;;;;13.13;8.93;;;;;;;;;;4934242;29;20474;-77
2022/05/12 04:49:18;;;;;;;15.98;8.45;;;;;;;;;;4920822;29;20428;-77
2022/05/12 04:51:43;;;;;;;19.40;8.98;;;;;;;;;;4942352;29;20063;-76
2022/05/12 04:54:09;;;;;;;20.92;9.27;;;;;;;;;;4934741;29;20047;-78
2022/05/12 04:56:36;;;;;;;22.73;9.50;;;;;;;;;;4934596;29;20046;-77
2022/05/12 04:59:02;;;;;;;15.80;9.52;;;;;;;;;;4941783;28;20498;-77
2022/05/12 05:01:28;;;;;;;22.15;10.73;;;;;;;;;;4949803;29;20434;-77
2022/05/12 05:03:54;;;;;;;21.10;9.95;;;;;;;;;;4953122;29;20047;-77
2022/05/12 05:06:22;;;;;;;19.55;9.48;;;;;;;;;;4953602;29;20055;-77
2022/05/12 05:08:48;;;;;;;30.83;10.55;;;;;;;;;;4953220;29;20470;-77
2022/05/12 05:11:14;;;;;;;23.17;9.88;;;;;;;;;;4953499;29;20051;-76
2022/05/12 05:13:40;;;;;;;20.65;9.57;;;;;;;;;;4953116;29;20059;-78
2022/05/12 05:16:06;;;;;;;18.60;9.48;;;;;;;;;;4953401;29;20039;-78
2022/05/12 05:18:31;;;;;;;21.13;9.35;;;;;;;;;;4936075;29;20070;-78
2022/05/12 05:20:57;;;;;;;18.00;8.98;;;;;;;;;;4953190;29;20053;-78
2022/05/12 05:23:23;;;;;;;16.88;9.20;;;;;;;;;;4953042;29;20062;-77
2022/05/12 05:25:49;;;;;;;19.33;7.63;;;;;;;;;;4954519;29;20058;-86
2022/05/12 05:28:15;;;;;;;12.60;8.45;;;;;;;;;;4955286;29;20057;-81
2022/05/12 05:30:41;;;;;;;24.67;8.50;;;;;;;;;;4937776;29;20533;-82
2022/05/12 05:33:07;;;;;;;21.58;8.93;;;;;;;;;;4958565;29;20062;-82
2022/05/12 05:35:34;;;;;;;15.38;7.97;;;;;;;;;;4961881;29;20099;-81
2022/05/12 05:38:00;;;;;;;16.02;8.60;;;;;;;;;;4928346;29;20047;-82
2022/05/12 05:40:26;;;;;;;15.45;8.07;;;;;;;;;;4956447;29;20421;-81
2022/05/12 05:42:52;;;;;;;17.95;8.63;;;;;;;;;;4953973;28;20488;-81
2022/05/12 05:45:17;;;;;;;18.23;9.20;;;;;;;;;;4953144;29;20051;-82
2022/05/12 05:47:45;;;;;;;23.65;9.65;;;;;;;;;;4952677;29;20123;-81
2022/05/12 05:50:11;;;;;;;11.88;9.70;;;;;;;;;;4935967;29;20032;-82
2022/05/12 05:55:21;;;;;;;12.18;9.65;;;;;;;;;;4934618;28;20043;-83
2022/05/12 05:57:47;;;;;;;26.05;11.15;;;;;;;;;;4941997;29;20826;-83
2022/05/12 06:00:15;;;;;;;15.65;10.85;;;;;;;;;;4932910;29;20518;-81
2022/05/12 06:02:41;;;;;;;16.55;9.93;;;;;;;;;;4916172;29;20046;-83
2022/05/12 06:05:07;;;;;;;17.27;9.95;;;;;;;;;;4917047;28;20059;-81
2022/05/12 06:07:34;;;;;;;16.73;9.30;;;;;;;;;;4943168;29;20104;-82
2022/05/12 06:10:01;;;;;;;21.48;8.25;;;;;;;;;;4933042;29;20456;-80
2022/05/12 06:12:29;;;;;;;17.38;8.00;;;;;;;;;;4917172;29;20130;-82
2022/05/12 06:14:56;;;;;;;18.85;8.73;;;;;;;;;;4936335;29;20043;-82
2022/05/12 06:17:22;;;;;;;13.55;8.93;;;;;;;;;;4913667;29;20050;-81
2022/05/12 06:19:50;;;;;;;17.92;7.35;;;;;;;;;;4946435;29;20043;-81
2022/05/12 06:22:19;;;;;;;25.98;6.90;;;;;;;;;;4942842;29;20473;-82
2022/05/12 06:24:45;;;;;;;18.83;7.20;;;;;;;;;;4918534;29;20044;-81
2022/05/12 06:27:11;;;;;;;19.73;8.02;;;;;;;;;;4943656;28;20534;-85
2022/05/12 06:29:36;;;;;;;20.60;8.32;;;;;;;;;;4944438;29;20063;-88
2022/05/12 06:32:02;;;;;;;15.70;7.63;;;;;;;;;;4926949;29;20051;-87
2022/05/12 06:34:28;;;;;;;17.77;7.53;;;;;;;;;;4955436;28;20087;-85
2022/05/12 06:36:56;;;;;;;26.05;8.18;;;;;;;;;;4956622;28;20054;-83
2022/05/12 06:39:22;;;;;;;16.33;7.30;;;;;;;;;;4948641;29;20035;-83
2022/05/12 06:41:48;;;;;;;14.05;7.70;;;;;;;;;;4966572;29;20065;-84
2022/05/12 06:44:14;;;;;;;15.43;6.65;;;;;;;;;;4963201;28;20038;-84
2022/05/12 06:46:40;;;;;;;13.05;6.22;;;;;;;;;;4938782;29;20054;-82
2022/05/12 06:49:06;;;;;;;14.23;6.35;;;;;;;;;;4967552;29;20077;-84
2022/05/12 06:51:33;;;;;;;11.80;6.10;;;;;;;;;;4976439;29;20035;-88
2022/05/12 06:53:59;;;;;;;15.40;6.28;;;;;;;;;;4966156;28;20091;-84
2022/05/12 06:56:25;;;;;;;12.15;5.25;;;;;;;;;;4958730;29;20102;-83
2022/05/12 06:58:51;;;;;;;11.23;4.00;;;;;;;;;;4953110;29;20043;-80
2022/05/12 07:01:17;;;;;;;11.50;5.25;;;;;;;;;;4949606;28;20039;-79
2022/05/12 07:03:43;;;;;;;7.40;4.93;;;;;;;;;;4950684;29;20693;-79
2022/05/12 07:06:09;;;;;;;14.10;5.20;;;;;;;;;;4951383;29;20086;-79
2022/05/12 07:08:37;;;;;;;15.23;4.75;;;;;;;;;;4962338;28;20053;-86
2022/05/12 07:11:03;;;;;;;16.92;5.22;;;;;;;;;;4958399;28;20035;-87
2022/05/12 07:13:29;;;;;;;11.73;5.05;;;;;;;;;;4944913;29;20043;-86
2022/05/12 07:15:55;;;;;;;10.35;4.93;;;;;;;;;;4933258;29;20446;-86
2022/05/12 07:18:21;;;;;;;13.63;4.65;;;;;;;;;;4951799;29;20559;-84
2022/05/12 07:29:01;;;;;;;10.50;4.07;;;;;;;;;;4933795;29;20043;-87
2022/05/12 07:31:27;;;;;;;5.68;3.50;;;;;;;;;;4934231;29;20040;-86
2022/05/12 07:33:54;;;;;;;9.73;3.53;;;;;;;;;;4922356;29;20549;-86
2022/05/12 07:36:25;;;;;;;11.30;4.40;;;;;;;;;;4937436;29;20058;-86
2022/05/12 07:38:51;;;;;;;4.80;3.30;;;;;;;;;;4933685;28;20418;-84
2022/05/12 07:41:17;;;;;;;9.75;3.78;;;;;;;;;;4926544;29;20134;-86
2022/05/12 07:43:43;;;;;;;10.93;4.00;;;;;;;;;;4936097;28;20047;-84
2022/05/12 07:46:09;;;;;;;8.18;3.92;;;;;;;;;;4923755;29;20055;-87
2022/05/12 07:48:35;;;;;;;7.28;3.90;;;;;;;;;;4951494;29;20043;-87
2022/05/12 07:51:02;;;;;;;6.78;3.90;;;;;;;;;;4935619;29;20043;-85
2022/05/12 07:53:27;;;;;;;9.90;3.83;;;;;;;;;;4936806;29;20054;-86
2022/05/12 07:55:53;;;;;;;9.52;3.50;;;;;;;;;;4949647;28;20047;-86
2022/05/12 07:58:19;;;;;;;13.68;3.95;;;;;;;;;;4942648;29;20043;-86
2022/05/12 08:00:45;;;;;;;10.57;3.30;;;;;;;;;;4923081;29;20039;-85
2022/05/12 08:03:11;;;;;;;10.77;3.38;;;;;;;;;;4951594;28;20040;-84
2022/05/12 08:05:38;;;;;;;4.00;3.22;;;;;;;;;;4948940;28;20054;-85
2022/05/12 08:08:04;;;;;;;9.55;3.65;;;;;;;;;;4950217;28;20566;-83
2022/05/12 08:10:30;;;;;;;13.65;3.40;;;;;;;;;;4928327;29;20503;-84
2022/05/12 08:12:56;;;;;;;4.15;3.13;;;;;;;;;;4939879;29;20047;-87
2022/05/12 08:15:25;;;;;;;11.80;3.00;;;;;;;;;;4957138;29;20098;-87
2022/05/12 08:17:54;;;;;;;8.85;3.47;;;;;;;;;;4958684;29;20099;-86
2022/05/12 08:20:20;;;;;;;8.15;3.25;;;;;;;;;;4939330;29;20047;-86
2022/05/12 08:22:45;;;;;;;3.75;3.17;;;;;;;;;;4939343;29;20082;-86
2022/05/12 08:25:11;;;;;;;9.98;3.30;;;;;;;;;;4938592;29;20104;-86
2022/05/12 08:27:37;;;;;;;5.47;3.20;;;;;;;;;;4941626;29;20063;-86
2022/05/12 08:30:03;;;;;;;5.95;3.00;;;;;;;;;;4936886;29;20422;-87
2022/05/12 08:32:30;;;;;;;7.07;3.00;;;;;;;;;;4940883;29;20051;-87
2022/05/12 08:34:56;;;;;;;3.88;3.05;;;;;;;;;;4937231;29;20132;-87
2022/05/12 08:37:22;;;;;;;8.32;3.88;;;;;;;;;;4937323;29;20515;-87
2022/05/12 08:39:49;;;;;;;7.55;3.45;;;;;;;;;;4937204;29;20122;-85
2022/05/12 08:42:21;;;;;;;4.75;3.30;;;;;;;;;;4954027;29;20467;-86
2022/05/12 08:44:47;;;;;;;12.30;3.33;;;;;;;;;;4933891;29;20058;-87
2022/05/12 08:47:14;;;;;;;7.05;3.60;;;;;;;;;;4919540;29;20659;-86
2022/05/12 08:49:52;;;;;;;4.38;3.22;;;;;;;;;;4918789;29;20047;-85
2022/05/12 08:52:25;;;;;;;11.68;2.92;;;;;;;;;;4937091;29;20052;-86
2022/05/12 08:55:25;;;;;;;8.50;2.50;;;;;;;;;;4921235;29;20510;-86
2022/05/12 08:57:58;;;;;;;4.53;2.83;;;;;;;;;;4931677;29;20044;-87
2022/05/12 09:00:24;;;;;;;6.18;3.50;;;;;;;;;;4939193;29;20051;-86
2022/05/12 09:03:02;;;;;;;7.25;3.60;;;;;;;;;;4950446;28;20103;-83
2022/05/12 09:05:29;;;;;;;7.30;3.25;;;;;;;;;;4953792;28;20111;-85
2022/05/12 09:08:17;;;;;;;4.40;3.30;;;;;;;;;;4936416;29;20039;-87
2022/05/12 09:11:02;;;;;;;4.43;3.25;;;;;;;;;;4934326;29;20517;-85
2022/05/12 09:13:32;;;;;;;6.00;3.05;;;;;;;;;;4934648;29;20054;-86
2022/05/12 09:16:16;;;;;;;5.10;3.33;;;;;;;;;;4942694;28;20039;-85
2022/05/12 09:18:42;;;;;;;4.10;3.10;;;;;;;;;;4949625;28;20051;-87
2022/05/12 09:21:10;;;;;;;6.65;3.28;;;;;;;;;;4953335;28;20031;-84
2022/05/12 09:23:37;;;;;;;5.82;3.47;;;;;;;;;;4954194;28;20035;-87
2022/05/12 09:26:23;;;;;;;11.75;3.60;;;;;;;;;;4952542;28;20063;-85
2022/05/12 09:28:49;;;;;;;5.57;3.47;;;;;;;;;;4954053;29;20039;-85
2022/05/12 09:31:15;;;;;;;5.63;3.42;;;;;;;;;;4954068;28;20047;-84
2022/05/12 09:33:42;;;;;;;8.63;3.60;;;;;;;;;;4947918;29;20055;-85
2022/05/12 09:36:09;;;;;;;7.45;2.53;;;;;;;;;;4955406;29;20039;-86
2022/05/12 09:38:39;;;;;;;2.97;2.40;;;;;;;;;;4936391;29;20055;-86
2022/05/12 09:41:15;;;;;;;12.88;3.22;;;;;;;;;;4951944;28;20043;-83
2022/05/12 09:43:41;;;;;;;4.97;2.67;;;;;;;;;;4952599;29;20114;-84
2022/05/12 09:46:08;;;;;;;4.13;2.92;;;;;;;;;;4950043;29;20047;-84
2022/05/12 17:08:18;;;;;;;14.57;10.85;;;;;;;;;;3078245;27;20040;-85
2022/05/12 17:10:47;;;;;;;12.23;11.20;;;;;;;;;;4939921;29;20051;-85
2022/05/12 17:13:13;;;;;;;13.70;12.30;;;;;;;;;;4934652;29;20024;-86
2022/05/12 17:15:39;;;;;;;14.45;13.02;;;;;;;;;;4925527;29;20028;-85
2022/05/12 17:18:05;;;;;;;13.80;12.32;;;;;;;;;;4924052;29;20048;-84
2022/05/12 17:20:31;;;;;;;16.13;11.50;;;;;;;;;;4943010;29;20099;-83
2022/05/12 17:22:57;;;;;;;17.05;12.52;;;;;;;;;;4908516;29;20087;-81
2022/05/12 17:25:23;;;;;;;14.52;11.18;;;;;;;;;;4900664;29;20056;-82
2022/05/12 17:27:48;;;;;;;14.75;13.27;;;;;;;;;;4906306;29;20112;-82
2022/05/12 17:30:16;;;;;;;14.00;12.30;;;;;;;;;;4914487;29;20104;-81
2022/05/12 17:32:42;;;;;;;13.93;12.75;;;;;;;;;;4912867;29;20079;-81
2022/05/12 17:35:08;;;;;;;15.20;13.57;;;;;;;;;;4913774;29;20067;-81
2022/05/12 17:37:35;;;;;;;14.65;13.38;;;;;;;;;;4913752;29;20423;-82
2022/05/12 17:40:03;;;;;;;11.52;10.07;;;;;;;;;;4913343;29;20039;-81
2022/05/12 17:42:29;;;;;;;12.77;11.55;;;;;;;;;;4920605;29;20542;-80
2022/05/12 17:44:56;;;;;;;12.98;11.65;;;;;;;;;;4907178;29;20048;-81
2022/05/12 17:47:21;;;;;;;11.50;10.60;;;;;;;;;;4915353;29;20051;-81
2022/05/12 17:49:47;;;;;;;13.05;11.55;;;;;;;;;;4896547;29;20040;-79
2022/05/12 17:52:13;;;;;;;12.27;11.10;;;;;;;;;;4912493;29;20047;-79
2022/05/12 17:54:39;;;;;;;11.95;10.85;;;;;;;;;;4929916;29;20052;-79
2022/05/12 17:57:05;;;;;;;13.77;12.55;;;;;;;;;;4921297;29;20052;-80
2022/05/12 17:59:31;;;;;;;12.90;10.48;;;;;;;;;;4914592;29;20565;-82
2022/05/12 18:01:57;;;;;;;14.18;12.60;;;;;;;;;;4928430;29;20051;-81
2022/05/12 18:04:23;;;;;;;9.82;9.13;;;;;;;;;;4907709;29;20048;-79
2022/05/12 18:06:49;;;;;;;10.07;9.10;;;;;;;;;;4904638;29;20040;-79
2022/05/12 18:09:15;;;;;;;10.35;9.35;;;;;;;;;;4910238;29;20091;-76
2022/05/12 18:11:43;;;;;;;9.57;8.68;;;;;;;;;;4908675;29;20045;-77
2022/05/12 18:14:13;;;;;;;11.40;10.48;;;;;;;;;;4912732;29;20042;-77
2022/05/12 18:16:39;;;;;;;8.82;8.23;;;;;;;;;;4902190;29;20071;-77
2022/05/12 18:19:05;;;;;;;10.00;9.23;;;;;;;;;;4909543;29;20044;-79
2022/05/12 18:21:30;;;;;;;10.38;9.48;;;;;;;;;;4910301;29;20044;-77
2022/05/12 18:23:56;;;;;;;8.43;7.82;;;;;;;;;;4908981;29;20524;-77
2022/05/12 18:26:23;;;;;;;8.88;8.07;;;;;;;;;;4911057;29;20044;-77
2022/05/12 18:28:49;;;;;;;9.13;8.52;;;;;;;;;;4912713;29;20036;-79
2022/05/12 18:31:15;;;;;;;10.35;9.43;;;;;;;;;;4909670;29;20526;-78
2022/05/12 18:33:40;;;;;;;9.38;8.68;;;;;;;;;;4910414;29;20040;-79
2022/05/12 18:36:07;;;;;;;10.05;9.25;;;;;;;;;;4915352;29;20043;-77
2022/05/12 18:38:33;;;;;;;8.88;7.93;;;;;;;;;;4917058;29;20048;-78
2022/05/12 18:40:59;;;;;;;8.68;7.63;;;;;;;;;;4926420;29;20075;-78
2022/05/12 18:43:25;;;;;;;7.82;7.10;;;;;;;;;;4911258;29;20192;-78
2022/05/12 18:45:52;;;;;;;7.82;7.20;;;;;;;;;;4911680;29;20062;-78
2022/05/12 18:48:18;;;;;;;8.32;6.28;;;;;;;;;;4909051;29;20507;-78
2022/05/12 18:50:44;;;;;;;5.47;5.18;;;;;;;;;;4909560;29;20131;-75
2022/05/12 18:53:10;;;;;;;6.70;6.30;;;;;;;;;;4906933;29;20040;-75
2022/05/12 18:55:37;;;;;;;6.53;6.03;;;;;;;;;;4909126;29;20040;-75
2022/05/12 18:58:04;;;;;;;6.22;5.80;;;;;;;;;;4910545;29;20150;-77
2022/05/12 19:00:30;;;;;;;5.70;5.30;;;;;;;;;;4908468;29;20103;-77
2022/05/12 19:02:56;;;;;;;6.97;6.38;;;;;;;;;;4905609;29;20091;-76
2022/05/12 19:05:23;;;;;;;5.85;5.45;;;;;;;;;;4912126;29;20816;-76
2022/05/12 19:07:50;;;;;;;7.10;6.55;;;;;;;;;;4911397;29;20048;-76
2022/05/12 19:10:16;;;;;;;5.85;5.45;;;;;;;;;;4910126;29;20546;-76
2022/05/12 19:12:42;;;;;;;7.85;7.18;;;;;;;;;;4910197;29;20046;-76
2022/05/12 19:15:15;;;;;;;6.03;5.63;;;;;;;;;;4894750;29;20039;-75
2022/05/12 19:17:45;;;;;;;7.13;6.38;;;;;;;;;;4862833;29;20170;-76
2022/05/12 19:20:12;;;;;;;8.60;7.90;;;;;;;;;;4909437;29;20051;-77
2022/05/12 19:22:38;;;;;;;8.18;7.47;;;;;;;;;;4910386;29;20042;-75
2022/05/12 19:25:04;;;;;;;12.05;8.43;;;;;;;;;;4911189;29;20051;-76
2022/05/12 19:27:30;;;;;;;9.32;8.27;;;;;;;;;;4908535;29;20046;-79
2022/05/12 19:29:57;;;;;;;7.03;6.55;;;;;;;;;;4911235;29;20130;-80
2022/05/12 19:32:23;;;;;;;6.20;5.70;;;;;;;;;;4910447;29;20044;-79
2022/05/12 19:34:48;;;;;;;6.45;5.95;;;;;;;;;;4910176;29;20134;-80
2022/05/12 19:37:14;;;;;;;8.00;5.25;;;;;;;;;;4910635;29;20139;-81
2022/05/12 19:39:40;;;;;;;5.35;4.95;;;;;;;;;;4911901;29;20058;-81
2022/05/12 19:42:06;;;;;;;7.32;6.63;;;;;;;;;;4911627;29;20032;-82
2022/05/12 19:44:33;;;;;;;8.02;6.50;;;;;;;;;;4912487;29;20056;-83
2022/05/12 19:46:58;;;;;;;7.85;7.00;;;;;;;;;;4901411;29;20063;-82
2022/05/12 19:49:24;;;;;;;8.65;7.90;;;;;;;;;;4912950;29;20052;-83
2022/05/12 19:51:50;;;;;;;7.57;6.97;;;;;;;;;;4912984;29;20047;-82
2022/05/12 19:54:17;;;;;;;7.63;6.32;;;;;;;;;;4911278;29;20044;-84
2022/05/12 19:56:42;;;;;;;6.50;6.00;;;;;;;;;;4912504;29;20400;-84
2022/05/12 19:59:08;;;;;;;6.53;6.03;;;;;;;;;;4911075;29;20052;-83
2022/05/12 20:01:34;;;;;;;5.93;5.20;;;;;;;;;;4912283;29;20048;-84
2022/05/12 20:04:02;;;;;;;5.55;5.15;;;;;;;;;;4926744;29;20028;-83
2022/05/12 20:06:28;;;;;;;4.88;4.57;;;;;;;;;;4910908;29;20544;-83
2022/05/12 20:08:54;;;;;;;4.90;4.60;;;;;;;;;;4912043;29;20480;-83
2022/05/12 20:11:20;;;;;;;5.95;5.53;;;;;;;;;;4909797;29;20062;-81
2022/05/12 20:13:46;;;;;;;6.18;5.78;;;;;;;;;;4909888;29;20547;-82
2022/05/12 20:16:12;;;;;;;5.20;4.75;;;;;;;;;;4909092;29;20056;-82
2022/05/12 20:18:39;;;;;;;4.80;4.40;;;;;;;;;;4908326;29;20162;-79
2022/05/12 20:21:05;;;;;;;3.75;3.45;;;;;;;;;;4908356;29;20043;-81
2022/05/12 20:23:31;;;;;;;4.80;4.50;;;;;;;;;;4901424;29;20051;-79
2022/05/12 20:25:57;;;;;;;3.92;3.72;;;;;;;;;;4910086;29;20048;-78
2022/05/12 20:28:23;;;;;;;4.53;4.13;;;;;;;;;;4908713;29;20052;-79
2022/05/12 20:30:49;;;;;;;5.00;4.70;;;;;;;;;;4905258;29;20071;-78
2022/05/12 20:33:15;;;;;;;5.03;4.63;;;;;;;;;;4909166;29;20048;-78
2022/05/12 20:35:41;;;;;;;4.80;4.45;;;;;;;;;;4908394;29;20532;-73
2022/05/12 20:38:07;;;;;;;3.60;3.40;;;;;;;;;;4907387;29;20059;-74
2022/05/12 20:40:32;;;;;;;2.78;2.67;;;;;;;;;;4910492;29;20130;-72
2022/05/12 20:42:58;;;;;;;4.07;3.78;;;;;;;;;;4910764;29;20095;-78
2022/05/12 20:48:09;;;;;;;4.75;4.13;;;;;;;;;;4909835;29;20119;-72
2022/05/12 20:50:36;;;;;;;3.95;3.75;;;;;;;;;;4911158;29;20048;-70
2022/05/12 20:53:01;;;;;;;3.58;3.38;;;;;;;;;;4910837;29;20036;-71
2022/05/12 20:55:27;;;;;;;3.42;2.63;;;;;;;;;;4911188;29;20048;-70
2022/05/12 20:57:53;;;;;;;2.95;2.72;;;;;;;;;;4911101;29;20056;-71
2022/05/12 21:00:19;;;;;;;3.00;2.80;;;;;;;;;;4911088;29;20047;-72
2022/05/12 21:02:46;;;;;;;2.90;2.70;;;;;;;;;;4911335;29;20044;-72
2022/05/12 21:05:12;;;;;;;2.03;1.92;;;;;;;;;;4910975;29;20048;-73
2022/05/12 21:07:37;;;;;;;1.92;1.83;;;;;;;;;;4910538;29;20116;-73
2022/05/12 21:10:03;;;;;;;1.45;1.45;;;;;;;;;;4910613;29;20051;-72
2022/05/12 21:12:29;;;;;;;2.35;2.25;;;;;;;;;;4909529;29;20039;-74
2022/05/12 21:14:55;;;;;;;1.83;1.73;;;;;;;;;;4913871;29;20433;-73
2022/05/12 21:17:23;;;;;;;1.75;1.65;;;;;;;;;;4913298;29;20083;-75
2022/05/12 21:19:49;;;;;;;2.05;1.95;;;;;;;;;;4913318;29;20050;-74
2022/05/12 21:22:15;;;;;;;1.55;1.55;;;;;;;;;;4914090;29;20131;-74
2022/05/12 21:24:41;;;;;;;1.90;1.80;;;;;;;;;;4914435;29;20135;-74
2022/05/12 21:27:07;;;;;;;2.10;2.00;;;;;;;;;;4914147;29;20032;-74
2022/05/12 21:29:33;;;;;;;2.17;2.08;;;;;;;;;;4914483;29;20570;-73
2022/05/12 21:31:59;;;;;;;1.83;1.73;;;;;;;;;;4913919;29;20123;-73
2022/05/12 21:34:25;;;;;;;2.40;1.60;;;;;;;;;;4913317;29;20051;-73
2022/05/12 21:36:51;;;;;;;1.50;1.50;;;;;;;;;;4913986;29;20040;-74
2022/05/12 21:39:19;;;;;;;2.35;1.70;;;;;;;;;;4909445;29;20060;-74
2022/05/12 21:41:45;;;;;;;1.60;1.55;;;;;;;;;;4912979;29;20040;-74
2022/05/12 21:44:11;;;;;;;1.38;1.35;;;;;;;;;;4913899;29;20048;-74
2022/05/12 21:46:37;;;;;;;1.45;1.35;;;;;;;;;;4913991;29;20119;-74
2022/05/12 21:49:03;;;;;;;1.30;1.30;;;;;;;;;;4907995;29;20052;-74
2022/05/12 21:51:29;;;;;;;1.33;1.33;;;;;;;;;;4903308;29;20121;-73
2022/05/12 21:53:59;;;;;;;1.42;1.33;;;;;;;;;;4913645;29;20055;-74
2022/05/12 21:56:27;;;;;;;1.30;1.20;;;;;;;;;;4911845;29;20044;-75
2022/05/12 22:01:40;;;;;;;1.23;1.23;;;;;;;;;;4912900;29;20043;-74
2022/05/12 22:04:13;;;;;;;1.42;1.42;;;;;;;;;;4913529;29;20059;-74
2022/05/12 22:06:42;;;;;;;1.35;1.35;;;;;;;;;;4913776;29;20131;-75
2022/05/12 22:09:09;;;;;;;1.77;1.67;;;;;;;;;;4901383;29;20058;-74